sensor_id;sensor_type;location;lat;lon;timestamp;temperature;humidity
34873;DHT22;21084;51.098;14.506;2022-10-16T00:02:19;14.60;99.90
34873;DHT22;21084;51.098;14.506;2022-10-16T00:05:25;14.70;99.90
34873;DHT22;21084;51.098;14.506;2022-10-16T00:08:28;14.80;99.90
34873;DHT22;21084;51.098;14.506;2022-10-16T00:11:40;14.90;99.90
34873;DHT22;21084;51.098;14.506;2022-10-16T00:14:33;15.00;99.90
34873;DHT22;21084;51.098;14.506;2022-10-16T00:18:23;14.90;99.90
34873;DHT22;21084;51.098;14.506;2022-10-16T00:21:48;14.90;99.90
34873;DHT22;21084;51.098;14.506;2022-10-16T00:28:55;14.60;99.90
34873;DHT22;21084;51.098;14.506;2022-10-16T00:31:48;14.60;99.90
34873;DHT22;21084;51.098;14.506;2022-10-16T00:35:08;14.50;99.90
34873;DHT22;21084;51.098;14.506;2022-10-16T00:38:26;14.60;99.90
34873;DHT22;21084;51.098;14.506;2022-10-16T00:41:25;14.60;99.90
34873;DHT22;21084;51.098;14.506;2022-10-16T00:44:50;14.60;99.90
34873;DHT22;21084;51.098;14.506;2022-10-16T00:47:39;14.60;99.90
34873;DHT22;21084;51.098;14.506;2022-10-16T00:50:27;14.40;99.90
34873;DHT22;21084;51.098;14.506;2022-10-16T00:53:49;14.20;99.90
34873;DHT22;21084;51.098;14.506;2022-10-16T00:56:40;14.20;99.90
34873;DHT22;21084;51.098;14.506;2022-10-16T00:59:27;14.10;99.90
34873;DHT22;21084;51.098;14.506;2022-10-16T01:02:16;14.10;99.90
34873;DHT22;21084;51.098;14.506;2022-10-16T01:05:23;14.10;99.90
34873;DHT22;21084;51.098;14.506;2022-10-16T01:08:39;14.00;99.90
34873;DHT22;21084;51.098;14.506;2022-10-16T01:12:23;13.80;99.90
34873;DHT22;21084;51.098;14.506;2022-10-16T01:15:50;13.80;99.90
34873;DHT22;21084;51.098;14.506;2022-10-16T01:19:39;13.90;99.90
34873;DHT22;21084;51.098;14.506;2022-10-16T01:23:13;13.90;99.90
34873;DHT22;21084;51.098;14.506;2022-10-16T01:26:30;13.70;99.90
34873;DHT22;21084;51.098;14.506;2022-10-16T01:29:12;13.60;99.90
34873;DHT22;21084;51.098;14.506;2022-10-16T01:31:50;13.50;99.90
34873;DHT22;21084;51.098;14.506;2022-10-16T01:34:33;13.50;99.90
34873;DHT22;21084;51.098;14.506;2022-10-16T01:37:10;13.40;99.90
34873;DHT22;21084;51.098;14.506;2022-10-16T01:39:47;13.40;99.90
34873;DHT22;21084;51.098;14.506;2022-10-16T01:42:24;13.30;99.90
34873;DHT22;21084;51.098;14.506;2022-10-16T01:44:59;13.30;99.90
34873;DHT22;21084;51.098;14.506;2022-10-16T01:47:33;13.20;99.90
34873;DHT22;21084;51.098;14.506;2022-10-16T01:50:08;13.20;99.90
34873;DHT22;21084;51.098;14.506;2022-10-16T01:52:44;13.10;99.90
34873;DHT22;21084;51.098;14.506;2022-10-16T01:55:20;13.00;99.90
34873;DHT22;21084;51.098;14.506;2022-10-16T01:57:52;13.00;99.90
34873;DHT22;21084;51.098;14.506;2022-10-16T02:00:24;12.90;99.90
34873;DHT22;21084;51.098;14.506;2022-10-16T02:02:58;12.90;99.90
34873;DHT22;21084;51.098;14.506;2022-10-16T02:05:31;12.80;99.90
34873;DHT22;21084;51.098;14.506;2022-10-16T02:08:00;12.60;99.90
34873;DHT22;21084;51.098;14.506;2022-10-16T02:10:32;12.60;99.90
34873;DHT22;21084;51.098;14.506;2022-10-16T02:13:07;12.60;99.90
34873;DHT22;21084;51.098;14.506;2022-10-16T02:15:38;12.60;99.90
34873;DHT22;21084;51.098;14.506;2022-10-16T02:18:09;12.50;99.90
34873;DHT22;21084;51.098;14.506;2022-10-16T02:20:45;12.50;99.90
34873;DHT22;21084;51.098;14.506;2022-10-16T02:23:21;12.50;99.90
34873;DHT22;21084;51.098;14.506;2022-10-16T02:25:53;12.50;99.90
34873;DHT22;21084;51.098;14.506;2022-10-16T02:28:26;12.50;99.90
34873;DHT22;21084;51.098;14.506;2022-10-16T02:31:01;12.60;99.90
34873;DHT22;21084;51.098;14.506;2022-10-16T02:33:42;12.80;99.90
34873;DHT22;21084;51.098;14.506;2022-10-16T02:36:17;12.80;99.90
34873;DHT22;21084;51.098;14.506;2022-10-16T02:38:55;12.80;99.90
34873;DHT22;21084;51.098;14.506;2022-10-16T02:41:37;12.80;99.90
34873;DHT22;21084;51.098;14.506;2022-10-16T02:44:20;12.80;99.90
34873;DHT22;21084;51.098;14.506;2022-10-16T02:47:00;12.70;99.90
34873;DHT22;21084;51.098;14.506;2022-10-16T02:49:40;12.80;99.90
34873;DHT22;21084;51.098;14.506;2022-10-16T02:52:20;12.80;99.90
34873;DHT22;21084;51.098;14.506;2022-10-16T02:54:53;12.80;99.90
34873;DHT22;21084;51.098;14.506;2022-10-16T02:57:27;12.80;99.90
34873;DHT22;21084;51.098;14.506;2022-10-16T03:00:00;12.80;99.90
34873;DHT22;21084;51.098;14.506;2022-10-16T03:02:37;12.90;99.90
34873;DHT22;21084;51.098;14.506;2022-10-16T03:05:18;12.90;99.90
34873;DHT22;21084;51.098;14.506;2022-10-16T03:07:59;12.90;99.90
34873;DHT22;21084;51.098;14.506;2022-10-16T03:10:47;13.00;99.90
34873;DHT22;21084;51.098;14.506;2022-10-16T03:13:22;13.10;99.90
34873;DHT22;21084;51.098;14.506;2022-10-16T03:15:56;13.10;99.90
34873;DHT22;21084;51.098;14.506;2022-10-16T03:18:37;13.20;99.90
34873;DHT22;21084;51.098;14.506;2022-10-16T03:21:11;13.20;99.90
34873;DHT22;21084;51.098;14.506;2022-10-16T03:23:45;13.20;99.90
34873;DHT22;21084;51.098;14.506;2022-10-16T03:26:17;13.20;99.90
34873;DHT22;21084;51.098;14.506;2022-10-16T03:29:05;13.20;99.90
34873;DHT22;21084;51.098;14.506;2022-10-16T03:31:40;13.20;99.90
34873;DHT22;21084;51.098;14.506;2022-10-16T03:34:16;13.30;99.90
34873;DHT22;21084;51.098;14.506;2022-10-16T03:36:49;13.30;99.90
34873;DHT22;21084;51.098;14.506;2022-10-16T03:39:34;13.30;99.90
34873;DHT22;21084;51.098;14.506;2022-10-16T03:42:08;13.30;99.90
34873;DHT22;21084;51.098;14.506;2022-10-16T03:44:41;13.40;99.90
34873;DHT22;21084;51.098;14.506;2022-10-16T03:47:24;13.40;99.90
34873;DHT22;21084;51.098;14.506;2022-10-16T03:50:01;13.50;99.90
34873;DHT22;21084;51.098;14.506;2022-10-16T03:52:33;13.50;99.90
34873;DHT22;21084;51.098;14.506;2022-10-16T03:55:13;13.50;99.90
34873;DHT22;21084;51.098;14.506;2022-10-16T03:57:51;13.60;99.90
34873;DHT22;21084;51.098;14.506;2022-10-16T04:00:27;13.60;99.90
34873;DHT22;21084;51.098;14.506;2022-10-16T04:03:05;13.60;99.90
34873;DHT22;21084;51.098;14.506;2022-10-16T04:06:16;13.60;99.90
34873;DHT22;21084;51.098;14.506;2022-10-16T04:08:53;13.70;99.90
34873;DHT22;21084;51.098;14.506;2022-10-16T04:11:54;13.70;99.90
34873;DHT22;21084;51.098;14.506;2022-10-16T04:14:41;13.70;99.90
34873;DHT22;21084;51.098;14.506;2022-10-16T04:17:34;13.80;99.90
34873;DHT22;21084;51.098;14.506;2022-10-16T04:20:13;13.80;99.90
34873;DHT22;21084;51.098;14.506;2022-10-16T04:22:51;14.00;99.90
34873;DHT22;21084;51.098;14.506;2022-10-16T04:25:26;14.00;99.90
34873;DHT22;21084;51.098;14.506;2022-10-16T04:28:29;14.00;99.90
34873;DHT22;21084;51.098;14.506;2022-10-16T04:31:09;14.00;99.90
34873;DHT22;21084;51.098;14.506;2022-10-16T04:33:47;14.00;99.90
34873;DHT22;21084;51.098;14.506;2022-10-16T04:36:26;14.00;99.90
34873;DHT22;21084;51.098;14.506;2022-10-16T04:38:58;14.20;99.90
34873;DHT22;21084;51.098;14.506;2022-10-16T04:41:30;14.20;99.90
34873;DHT22;21084;51.098;14.506;2022-10-16T04:44:08;14.20;99.90
34873;DHT22;21084;51.098;14.506;2022-10-16T04:46:41;14.10;99.90
34873;DHT22;21084;51.098;14.506;2022-10-16T04:49:19;14.20;99.90
34873;DHT22;21084;51.098;14.506;2022-10-16T04:51:59;14.10;99.90
34873;DHT22;21084;51.098;14.506;2022-10-16T04:54:40;14.10;99.90
34873;DHT22;21084;51.098;14.506;2022-10-16T04:57:13;14.10;99.90
34873;DHT22;21084;51.098;14.506;2022-10-16T04:59:46;14.00;99.90
34873;DHT22;21084;51.098;14.506;2022-10-16T05:02:19;14.00;99.90
34873;DHT22;21084;51.098;14.506;2022-10-16T05:05:11;14.00;99.90
34873;DHT22;21084;51.098;14.506;2022-10-16T05:07:44;13.90;99.90
34873;DHT22;21084;51.098;14.506;2022-10-16T05:10:22;13.80;99.90
34873;DHT22;21084;51.098;14.506;2022-10-16T05:12:54;13.80;99.90
34873;DHT22;21084;51.098;14.506;2022-10-16T05:15:25;13.80;99.90
34873;DHT22;21084;51.098;14.506;2022-10-16T05:17:56;13.70;99.90
34873;DHT22;21084;51.098;14.506;2022-10-16T05:20:28;13.70;99.90
34873;DHT22;21084;51.098;14.506;2022-10-16T05:23:00;13.60;99.90
34873;DHT22;21084;51.098;14.506;2022-10-16T05:25:34;13.60;99.90
34873;DHT22;21084;51.098;14.506;2022-10-16T05:28:03;13.50;99.90
34873;DHT22;21084;51.098;14.506;2022-10-16T05:30:37;13.40;99.90
34873;DHT22;21084;51.098;14.506;2022-10-16T05:33:07;13.30;99.90
34873;DHT22;21084;51.098;14.506;2022-10-16T05:35:40;13.20;99.90
34873;DHT22;21084;51.098;14.506;2022-10-16T05:38:09;13.20;99.90
34873;DHT22;21084;51.098;14.506;2022-10-16T05:40:40;13.10;99.90
34873;DHT22;21084;51.098;14.506;2022-10-16T05:43:10;13.10;99.90
34873;DHT22;21084;51.098;14.506;2022-10-16T05:45:40;13.00;99.90
34873;DHT22;21084;51.098;14.506;2022-10-16T05:48:12;13.00;99.90
34873;DHT22;21084;51.098;14.506;2022-10-16T05:50:44;12.90;99.90
34873;DHT22;21084;51.098;14.506;2022-10-16T05:53:16;12.90;99.90
34873;DHT22;21084;51.098;14.506;2022-10-16T05:55:54;12.90;99.90
34873;DHT22;21084;51.098;14.506;2022-10-16T05:58:28;12.90;99.90
34873;DHT22;21084;51.098;14.506;2022-10-16T06:01:03;13.00;99.90
34873;DHT22;21084;51.098;14.506;2022-10-16T06:03:35;13.00;99.90
34873;DHT22;21084;51.098;14.506;2022-10-16T06:06:09;13.10;99.90
34873;DHT22;21084;51.098;14.506;2022-10-16T06:08:41;13.10;99.90
34873;DHT22;21084;51.098;14.506;2022-10-16T06:11:15;13.20;99.90
34873;DHT22;21084;51.098;14.506;2022-10-16T06:13:56;13.30;99.90
34873;DHT22;21084;51.098;14.506;2022-10-16T06:16:39;13.40;99.90
34873;DHT22;21084;51.098;14.506;2022-10-16T06:19:11;13.50;99.90
34873;DHT22;21084;51.098;14.506;2022-10-16T06:21:48;13.60;99.90
34873;DHT22;21084;51.098;14.506;2022-10-16T06:24:30;13.80;99.90
34873;DHT22;21084;51.098;14.506;2022-10-16T06:27:09;13.90;99.90
34873;DHT22;21084;51.098;14.506;2022-10-16T06:29:40;14.00;99.90
34873;DHT22;21084;51.098;14.506;2022-10-16T06:32:11;14.10;99.90
34873;DHT22;21084;51.098;14.506;2022-10-16T06:34:41;14.10;99.90
34873;DHT22;21084;51.098;14.506;2022-10-16T06:37:12;14.20;99.90
34873;DHT22;21084;51.098;14.506;2022-10-16T06:39:47;14.20;99.90
34873;DHT22;21084;51.098;14.506;2022-10-16T06:42:18;14.20;99.90
34873;DHT22;21084;51.098;14.506;2022-10-16T06:44:48;14.30;99.90
34873;DHT22;21084;51.098;14.506;2022-10-16T06:47:17;14.40;99.90
34873;DHT22;21084;51.098;14.506;2022-10-16T06:49:49;14.60;99.90
34873;DHT22;21084;51.098;14.506;2022-10-16T06:52:24;14.70;99.90
34873;DHT22;21084;51.098;14.506;2022-10-16T06:55:07;15.00;99.90
34873;DHT22;21084;51.098;14.506;2022-10-16T06:57:49;15.20;99.90
34873;DHT22;21084;51.098;14.506;2022-10-16T07:00:30;15.50;99.90
34873;DHT22;21084;51.098;14.506;2022-10-16T07:03:10;15.70;99.90
34873;DHT22;21084;51.098;14.506;2022-10-16T07:06:13;15.80;99.90
34873;DHT22;21084;51.098;14.506;2022-10-16T07:09:18;16.00;99.90
34873;DHT22;21084;51.098;14.506;2022-10-16T07:15:49;16.20;99.90
34873;DHT22;21084;51.098;14.506;2022-10-16T07:18:36;16.30;99.90
34873;DHT22;21084;51.098;14.506;2022-10-16T07:21:16;16.40;99.90
34873;DHT22;21084;51.098;14.506;2022-10-16T07:24:22;16.50;99.90
34873;DHT22;21084;51.098;14.506;2022-10-16T07:27:48;17.00;99.90
34873;DHT22;21084;51.098;14.506;2022-10-16T07:30:36;17.00;99.90
34873;DHT22;21084;51.098;14.506;2022-10-16T07:33:40;17.10;99.90
34873;DHT22;21084;51.098;14.506;2022-10-16T07:36:23;17.10;99.90
34873;DHT22;21084;51.098;14.506;2022-10-16T08:26:56;18.80;99.90
34873;DHT22;21084;51.098;14.506;2022-10-16T08:29:26;19.30;99.90
34873;DHT22;21084;51.098;14.506;2022-10-16T08:31:55;19.50;99.90
34873;DHT22;21084;51.098;14.506;2022-10-16T08:38:27;19.20;99.90
34873;DHT22;21084;51.098;14.506;2022-10-16T08:41:00;19.50;99.90
34873;DHT22;21084;51.098;14.506;2022-10-16T09:08:37;18.60;99.90
34873;DHT22;21084;51.098;14.506;2022-10-16T09:11:14;18.80;99.90
34873;DHT22;21084;51.098;14.506;2022-10-16T09:13:50;18.90;99.90
34873;DHT22;21084;51.098;14.506;2022-10-16T09:16:24;19.10;99.90
34873;DHT22;21084;51.098;14.506;2022-10-16T09:19:00;19.20;99.90
34873;DHT22;21084;51.098;14.506;2022-10-16T09:21:35;19.20;99.90
34873;DHT22;21084;51.098;14.506;2022-10-16T09:24:11;19.10;99.90
34873;DHT22;21084;51.098;14.506;2022-10-16T09:26:40;19.10;99.90
34873;DHT22;21084;51.098;14.506;2022-10-16T09:29:13;19.10;99.90
34873;DHT22;21084;51.098;14.506;2022-10-16T09:31:42;19.10;99.90
34873;DHT22;21084;51.098;14.506;2022-10-16T09:34:21;19.20;99.90
34873;DHT22;21084;51.098;14.506;2022-10-16T09:36:51;19.50;99.90
34873;DHT22;21084;51.098;14.506;2022-10-16T09:39:21;19.80;99.90
34873;DHT22;21084;51.098;14.506;2022-10-16T09:41:49;20.10;99.90
34873;DHT22;21084;51.098;14.506;2022-10-16T09:44:21;20.00;99.90
34873;DHT22;21084;51.098;14.506;2022-10-16T09:50:00;19.20;99.90
34873;DHT22;21084;51.098;14.506;2022-10-16T09:52:31;19.40;99.90
34873;DHT22;21084;51.098;14.506;2022-10-16T10:01:13;19.40;99.90
34873;DHT22;21084;51.098;14.506;2022-10-16T10:03:43;19.50;99.90
34873;DHT22;21084;51.098;14.506;2022-10-16T10:06:25;19.60;99.90
34873;DHT22;21084;51.098;14.506;2022-10-16T10:22:56;19.00;99.90
34873;DHT22;21084;51.098;14.506;2022-10-16T10:25:49;19.40;99.90
34873;DHT22;21084;51.098;14.506;2022-10-16T10:45:15;19.90;99.90
34873;DHT22;21084;51.098;14.506;2022-10-16T10:50:39;20.40;99.90
34873;DHT22;21084;51.098;14.506;2022-10-16T10:53:21;20.30;99.90
34873;DHT22;21084;51.098;14.506;2022-10-16T10:55:58;20.20;99.90
34873;DHT22;21084;51.098;14.506;2022-10-16T10:59:06;20.40;99.90
34873;DHT22;21084;51.098;14.506;2022-10-16T11:01:45;20.40;99.90
34873;DHT22;21084;51.098;14.506;2022-10-16T11:04:43;21.00;99.90
34873;DHT22;21084;51.098;14.506;2022-10-16T11:07:17;20.90;99.90
34873;DHT22;21084;51.098;14.506;2022-10-16T11:09:48;20.80;99.90
34873;DHT22;21084;51.098;14.506;2022-10-16T11:12:20;21.20;99.90
34873;DHT22;21084;51.098;14.506;2022-10-16T11:14:56;21.20;99.90
34873;DHT22;21084;51.098;14.506;2022-10-16T11:17:29;21.50;99.90
34873;DHT22;21084;51.098;14.506;2022-10-16T11:20:03;21.40;99.90
34873;DHT22;21084;51.098;14.506;2022-10-16T11:22:35;21.20;99.90
34873;DHT22;21084;51.098;14.506;2022-10-16T11:25:11;21.10;99.90
34873;DHT22;21084;51.098;14.506;2022-10-16T11:27:43;21.30;99.90
34873;DHT22;21084;51.098;14.506;2022-10-16T11:30:16;21.90;99.90
34873;DHT22;21084;51.098;14.506;2022-10-16T11:33:00;22.70;99.90
34873;DHT22;21084;51.098;14.506;2022-10-16T11:35:38;23.10;99.90
34873;DHT22;21084;51.098;14.506;2022-10-16T11:38:13;23.80;99.90
34873;DHT22;21084;51.098;14.506;2022-10-16T11:40:46;24.00;99.90
34873;DHT22;21084;51.098;14.506;2022-10-16T11:43:21;23.10;99.90
34873;DHT22;21084;51.098;14.506;2022-10-16T11:45:54;23.10;99.90
34873;DHT22;21084;51.098;14.506;2022-10-16T11:48:27;23.10;99.90
34873;DHT22;21084;51.098;14.506;2022-10-16T11:51:06;23.40;99.90
34873;DHT22;21084;51.098;14.506;2022-10-16T11:53:44;23.30;99.90
34873;DHT22;21084;51.098;14.506;2022-10-16T11:56:13;23.30;99.90
34873;DHT22;21084;51.098;14.506;2022-10-16T11:58:51;22.50;99.90
34873;DHT22;21084;51.098;14.506;2022-10-16T12:01:25;22.50;99.90
34873;DHT22;21084;51.098;14.506;2022-10-16T12:04:05;22.50;99.90
34873;DHT22;21084;51.098;14.506;2022-10-16T12:06:37;23.50;99.90
34873;DHT22;21084;51.098;14.506;2022-10-16T12:09:15;24.10;99.90
34873;DHT22;21084;51.098;14.506;2022-10-16T12:11:46;24.40;99.90
34873;DHT22;21084;51.098;14.506;2022-10-16T12:14:21;24.00;99.90
34873;DHT22;21084;51.098;14.506;2022-10-16T12:16:54;23.50;99.90
34873;DHT22;21084;51.098;14.506;2022-10-16T12:19:25;23.00;99.90
34873;DHT22;21084;51.098;14.506;2022-10-16T12:21:56;22.60;99.90
34873;DHT22;21084;51.098;14.506;2022-10-16T12:24:33;22.60;99.90
34873;DHT22;21084;51.098;14.506;2022-10-16T12:27:03;22.60;99.90
34873;DHT22;21084;51.098;14.506;2022-10-16T12:29:33;22.00;99.90
34873;DHT22;21084;51.098;14.506;2022-10-16T12:32:03;22.40;99.90
34873;DHT22;21084;51.098;14.506;2022-10-16T12:34:38;22.50;99.90
34873;DHT22;21084;51.098;14.506;2022-10-16T12:37:11;23.70;99.90
34873;DHT22;21084;51.098;14.506;2022-10-16T12:39:40;23.10;99.90
34873;DHT22;21084;51.098;14.506;2022-10-16T12:42:23;23.40;99.90
34873;DHT22;21084;51.098;14.506;2022-10-16T12:44:58;23.90;99.90
34873;DHT22;21084;51.098;14.506;2022-10-16T12:47:36;22.90;99.90
34873;DHT22;21084;51.098;14.506;2022-10-16T12:50:24;22.60;99.90
34873;DHT22;21084;51.098;14.506;2022-10-16T12:52:52;23.20;99.90
34873;DHT22;21084;51.098;14.506;2022-10-16T12:55:22;23.30;99.90
34873;DHT22;21084;51.098;14.506;2022-10-16T12:58:04;23.50;99.90
34873;DHT22;21084;51.098;14.506;2022-10-16T13:00:41;23.70;99.90
34873;DHT22;21084;51.098;14.506;2022-10-16T13:03:48;24.10;99.90
34873;DHT22;21084;51.098;14.506;2022-10-16T13:06:27;24.20;99.90
34873;DHT22;21084;51.098;14.506;2022-10-16T13:09:12;24.40;99.90
34873;DHT22;21084;51.098;14.506;2022-10-16T13:12:00;24.50;99.90
34873;DHT22;21084;51.098;14.506;2022-10-16T13:15:08;24.50;99.90
34873;DHT22;21084;51.098;14.506;2022-10-16T13:17:47;23.90;99.90
34873;DHT22;21084;51.098;14.506;2022-10-16T13:20:22;23.00;99.90
34873;DHT22;21084;51.098;14.506;2022-10-16T13:23:01;23.10;99.90
34873;DHT22;21084;51.098;14.506;2022-10-16T13:25:40;24.10;99.90
34873;DHT22;21084;51.098;14.506;2022-10-16T13:28:12;24.50;99.90
34873;DHT22;21084;51.098;14.506;2022-10-16T13:30:42;24.10;99.90
34873;DHT22;21084;51.098;14.506;2022-10-16T13:33:15;23.30;99.90
34873;DHT22;21084;51.098;14.506;2022-10-16T13:35:49;22.80;99.90
34873;DHT22;21084;51.098;14.506;2022-10-16T13:38:21;22.60;99.90
34873;DHT22;21084;51.098;14.506;2022-10-16T13:40:51;22.30;99.90
34873;DHT22;21084;51.098;14.506;2022-10-16T13:43:23;22.80;99.90
34873;DHT22;21084;51.098;14.506;2022-10-16T13:46:00;23.20;99.90
34873;DHT22;21084;51.098;14.506;2022-10-16T13:48:29;23.00;99.90
34873;DHT22;21084;51.098;14.506;2022-10-16T13:51:03;22.80;99.90
34873;DHT22;21084;51.098;14.506;2022-10-16T13:53:34;22.60;99.90
34873;DHT22;21084;51.098;14.506;2022-10-16T13:56:04;22.40;99.90
34873;DHT22;21084;51.098;14.506;2022-10-16T13:58:33;22.50;99.90
34873;DHT22;21084;51.098;14.506;2022-10-16T14:01:02;22.30;99.90
34873;DHT22;21084;51.098;14.506;2022-10-16T14:03:32;22.10;99.90
34873;DHT22;21084;51.098;14.506;2022-10-16T14:06:03;22.00;99.90
34873;DHT22;21084;51.098;14.506;2022-10-16T14:08:36;22.20;99.90
34873;DHT22;21084;51.098;14.506;2022-10-16T14:11:04;22.00;99.90
34873;DHT22;21084;51.098;14.506;2022-10-16T14:13:36;21.90;99.90
34873;DHT22;21084;51.098;14.506;2022-10-16T14:16:07;21.60;99.90
34873;DHT22;21084;51.098;14.506;2022-10-16T14:18:38;21.50;99.90
34873;DHT22;21084;51.098;14.506;2022-10-16T14:21:11;21.40;99.90
34873;DHT22;21084;51.098;14.506;2022-10-16T14:23:42;21.40;99.90
34873;DHT22;21084;51.098;14.506;2022-10-16T14:26:15;21.20;99.90
34873;DHT22;21084;51.098;14.506;2022-10-16T14:28:45;20.90;99.90
34873;DHT22;21084;51.098;14.506;2022-10-16T14:31:29;20.90;99.90
34873;DHT22;21084;51.098;14.506;2022-10-16T14:33:58;20.80;99.90
34873;DHT22;21084;51.098;14.506;2022-10-16T14:36:27;20.70;99.90
34873;DHT22;21084;51.098;14.506;2022-10-16T14:39:03;20.60;99.90
34873;DHT22;21084;51.098;14.506;2022-10-16T14:41:33;20.60;99.90
34873;DHT22;21084;51.098;14.506;2022-10-16T14:44:04;20.40;99.90
34873;DHT22;21084;51.098;14.506;2022-10-16T14:46:35;20.30;99.90
34873;DHT22;21084;51.098;14.506;2022-10-16T14:49:14;20.20;99.90
34873;DHT22;21084;51.098;14.506;2022-10-16T14:51:42;20.10;99.90
34873;DHT22;21084;51.098;14.506;2022-10-16T14:54:15;20.10;99.90
34873;DHT22;21084;51.098;14.506;2022-10-16T14:56:47;20.00;99.90
34873;DHT22;21084;51.098;14.506;2022-10-16T14:59:19;20.00;99.90
34873;DHT22;21084;51.098;14.506;2022-10-16T15:01:47;19.90;99.90
34873;DHT22;21084;51.098;14.506;2022-10-16T15:04:15;20.00;99.90
34873;DHT22;21084;51.098;14.506;2022-10-16T15:06:44;19.90;99.90
34873;DHT22;21084;51.098;14.506;2022-10-16T15:09:14;19.90;99.90
34873;DHT22;21084;51.098;14.506;2022-10-16T15:11:42;19.80;99.90
34873;DHT22;21084;51.098;14.506;2022-10-16T15:14:11;19.70;99.90
34873;DHT22;21084;51.098;14.506;2022-10-16T15:16:41;19.60;99.90
34873;DHT22;21084;51.098;14.506;2022-10-16T15:19:09;19.60;99.90
34873;DHT22;21084;51.098;14.506;2022-10-16T15:21:37;19.60;99.90
34873;DHT22;21084;51.098;14.506;2022-10-16T15:24:09;19.50;99.90
34873;DHT22;21084;51.098;14.506;2022-10-16T15:26:46;19.40;99.90
34873;DHT22;21084;51.098;14.506;2022-10-16T15:29:15;19.30;99.90
34873;DHT22;21084;51.098;14.506;2022-10-16T15:31:43;19.20;99.90
34873;DHT22;21084;51.098;14.506;2022-10-16T15:34:14;19.20;99.90
34873;DHT22;21084;51.098;14.506;2022-10-16T15:36:42;19.10;99.90
34873;DHT22;21084;51.098;14.506;2022-10-16T15:39:13;19.00;99.90
34873;DHT22;21084;51.098;14.506;2022-10-16T15:41:41;19.00;99.90
34873;DHT22;21084;51.098;14.506;2022-10-16T15:44:10;18.80;99.90
34873;DHT22;21084;51.098;14.506;2022-10-16T15:46:38;18.80;99.90
34873;DHT22;21084;51.098;14.506;2022-10-16T15:49:12;18.70;99.90
34873;DHT22;21084;51.098;14.506;2022-10-16T15:51:42;18.70;99.90
34873;DHT22;21084;51.098;14.506;2022-10-16T15:54:10;18.70;99.90
34873;DHT22;21084;51.098;14.506;2022-10-16T15:56:38;18.60;99.90
34873;DHT22;21084;51.098;14.506;2022-10-16T15:59:06;18.50;99.90
34873;DHT22;21084;51.098;14.506;2022-10-16T16:01:35;18.40;99.90
34873;DHT22;21084;51.098;14.506;2022-10-16T16:04:04;18.40;99.90
34873;DHT22;21084;51.098;14.506;2022-10-16T16:06:45;18.40;99.90
34873;DHT22;21084;51.098;14.506;2022-10-16T16:09:14;18.20;99.90
34873;DHT22;21084;51.098;14.506;2022-10-16T16:11:42;18.20;99.90
34873;DHT22;21084;51.098;14.506;2022-10-16T16:14:12;18.10;99.90
34873;DHT22;21084;51.098;14.506;2022-10-16T16:16:41;18.10;99.90
34873;DHT22;21084;51.098;14.506;2022-10-16T16:19:09;18.00;99.90
34873;DHT22;21084;51.098;14.506;2022-10-16T16:21:38;18.00;99.90
34873;DHT22;21084;51.098;14.506;2022-10-16T16:24:06;18.00;99.90
34873;DHT22;21084;51.098;14.506;2022-10-16T16:26:36;17.90;99.90
34873;DHT22;21084;51.098;14.506;2022-10-16T16:29:06;17.80;99.90
34873;DHT22;21084;51.098;14.506;2022-10-16T16:31:35;17.80;99.90
34873;DHT22;21084;51.098;14.506;2022-10-16T16:34:04;17.70;99.90
34873;DHT22;21084;51.098;14.506;2022-10-16T16:36:33;17.70;99.90
34873;DHT22;21084;51.098;14.506;2022-10-16T16:39:01;17.60;99.90
34873;DHT22;21084;51.098;14.506;2022-10-16T16:41:29;17.60;99.90
34873;DHT22;21084;51.098;14.506;2022-10-16T16:44:01;17.60;99.90
34873;DHT22;21084;51.098;14.506;2022-10-16T16:46:31;17.50;99.90
34873;DHT22;21084;51.098;14.506;2022-10-16T16:49:00;17.60;99.90
34873;DHT22;21084;51.098;14.506;2022-10-16T16:51:29;17.50;99.90
34873;DHT22;21084;51.098;14.506;2022-10-16T16:54:02;17.40;99.90
34873;DHT22;21084;51.098;14.506;2022-10-16T16:56:31;17.40;99.90
34873;DHT22;21084;51.098;14.506;2022-10-16T16:58:59;17.30;99.90
34873;DHT22;21084;51.098;14.506;2022-10-16T17:01:28;17.30;99.90
34873;DHT22;21084;51.098;14.506;2022-10-16T17:03:58;17.20;99.90
34873;DHT22;21084;51.098;14.506;2022-10-16T17:06:29;17.20;99.90
34873;DHT22;21084;51.098;14.506;2022-10-16T17:08:57;17.10;99.90
34873;DHT22;21084;51.098;14.506;2022-10-16T17:11:27;17.00;99.90
34873;DHT22;21084;51.098;14.506;2022-10-16T17:13:57;16.80;99.90
34873;DHT22;21084;51.098;14.506;2022-10-16T17:16:28;16.70;99.90
34873;DHT22;21084;51.098;14.506;2022-10-16T17:18:59;16.60;99.90
34873;DHT22;21084;51.098;14.506;2022-10-16T17:21:28;16.50;99.90
34873;DHT22;21084;51.098;14.506;2022-10-16T17:23:59;16.30;99.90
34873;DHT22;21084;51.098;14.506;2022-10-16T17:26:28;16.20;99.90
34873;DHT22;21084;51.098;14.506;2022-10-16T17:28:58;16.10;99.90
34873;DHT22;21084;51.098;14.506;2022-10-16T17:31:29;16.00;99.90
34873;DHT22;21084;51.098;14.506;2022-10-16T17:33:58;15.90;99.90
34873;DHT22;21084;51.098;14.506;2022-10-16T17:43:45;15.60;99.90
34873;DHT22;21084;51.098;14.506;2022-10-16T17:46:17;15.40;99.90
34873;DHT22;21084;51.098;14.506;2022-10-16T17:48:50;15.30;99.90
34873;DHT22;21084;51.098;14.506;2022-10-16T17:51:24;15.20;99.90
34873;DHT22;21084;51.098;14.506;2022-10-16T17:53:55;15.20;99.90
34873;DHT22;21084;51.098;14.506;2022-10-16T17:56:28;15.20;99.90
34873;DHT22;21084;51.098;14.506;2022-10-16T17:58:59;15.20;99.90
34873;DHT22;21084;51.098;14.506;2022-10-16T18:01:31;15.20;99.90
34873;DHT22;21084;51.098;14.506;2022-10-16T18:04:02;15.00;99.90
34873;DHT22;21084;51.098;14.506;2022-10-16T18:06:34;14.90;99.90
34873;DHT22;21084;51.098;14.506;2022-10-16T18:09:05;14.90;99.90
34873;DHT22;21084;51.098;14.506;2022-10-16T18:11:34;14.80;99.90
34873;DHT22;21084;51.098;14.506;2022-10-16T18:14:05;14.80;99.90
34873;DHT22;21084;51.098;14.506;2022-10-16T18:16:36;14.70;99.90
34873;DHT22;21084;51.098;14.506;2022-10-16T18:19:05;14.60;99.90
34873;DHT22;21084;51.098;14.506;2022-10-16T18:21:34;14.50;99.90
34873;DHT22;21084;51.098;14.506;2022-10-16T18:24:02;14.40;99.90
34873;DHT22;21084;51.098;14.506;2022-10-16T18:26:31;14.40;99.90
34873;DHT22;21084;51.098;14.506;2022-10-16T18:29:02;14.30;99.90
34873;DHT22;21084;51.098;14.506;2022-10-16T18:31:35;14.30;99.90
34873;DHT22;21084;51.098;14.506;2022-10-16T18:34:09;14.20;99.90